KMCN

Middle Georgia Regional Airport

Airport
ICAO code
KMCN
Summary
ICAO Region
NAM
ICAO Territory
Location

Macon, Georgia,

Coordinates
32° 41' 46" N , 83° 38' 50" W
KCC
Metar
KMCN 201753Z 09015G22KT 10SM FEW060 32/16 A3026 RMK AO2 SLP241 T03220156 10328 20222 58012

Description

Middle Georgia Regional Airport is public use airport located 17 km south of the central business district of Macon, a city in Bibb County, Georgia.

Climatology

Humid “subtropical” climate (Köppen climate classification Cfa) - characterized by hot, humid summers and cool winters. Significant amounts of precipitation occur in all seasons in most areas.

Runways

Designator Length Width Surface Rops
13/31 1524 46 ASP Yes/Yes
5/23 1982 46 ASP Yes/Yes

Airport map

Aerial View

SKYbrary Partners:

Safety knowledge contributed by: